PYO weather

Putumayo Airport
Puerto Putumayo, Sucumbios Province, Ecuador

Public forecast

Using degrees Celsius for public forecast. Weather courtesy of forecast.io.

Closest aviation weather report (METAR) to Putumayo Airport

Report is more than 6 hours old.

Closest report is Tres De Mayo Airport, 45.5 nm (84.3 km) WNW. Retrieved 2020/07/19 23:00 UTC (18 days ago):

SKAS 192300Z 23003KT 9999 FEW020 SCT050 BKN130 28/22 A2981

Closest aviation forecast (TAF) to Putumayo Airport

Forecast is more than 12 hours old.

Closest forecast is Nueva Loja Airport, 61.1 nm (113.1 km) W. Retrieved 2018/09/09 12:03 UTC (2 years ago):

TAF TAF SCDA 091040Z 0912/1012 19004KT 9999 OVC020 TX18/0917Z TN16/1006ZLVA0571 091200 GG EBBRYZYX EBBRYZYZ EGGYYBYA KMKMYTYX KWBCYMYX MPLBYFYX MPTOYMYX 091200 SEQUYZYX SAEQ01 SEQU 091200 RRB METAR SENL 091200Z 36002KT 9999 SCT030 BKN100 22/21 Q1013 RMK A2994